Time;durP1;ratioP1;P1;durP2;ratioP2;P2;SDS_P1;SDS_P2;PMS_P1;PMS_P2;Temp;Humidity;BMP_temperature;BMP_pressure;BME280_temperature;BME280_humidity;BME280_pressure;Samples;Min_cycle;Max_cycle;Signal;HPM_P1;HPM_P2
2022/06/07 00:01:48;;;;;;;14.07;6.50;;;;;;;14.22;69.98;99741.90;1729694;82;21146;-81
2022/06/07 00:04:15;;;;;;;14.33;7.08;;;;;;;14.21;70.00;99733.55;1703438;82;21128;-81
2022/06/07 00:06:42;;;;;;;12.28;6.40;;;;;;;14.22;69.87;99739.70;1700548;83;21013;-81
2022/06/07 00:09:08;;;;;;;10.40;6.53;;;;;;;14.20;69.70;99741.56;1700657;84;20999;-81
2022/06/07 00:11:35;;;;;;;9.85;6.95;;;;;;;14.18;69.72;99738.13;1700312;84;22285;-81
2022/06/07 00:14:03;;;;;;;15.13;7.42;;;;;;;14.15;69.87;99739.59;1700335;84;21026;-81
2022/06/07 00:16:30;;;;;;;14.15;7.70;;;;;;;14.10;69.70;99734.06;1700361;84;22384;-81
2022/06/07 00:18:56;;;;;;;11.57;7.70;;;;;;;14.08;69.72;99735.89;1700437;83;21068;-81
2022/06/07 00:21:23;;;;;;;18.67;9.70;;;;;;;14.06;69.99;99737.75;1700468;84;21038;-80
2022/06/07 00:23:49;;;;;;;36.88;18.17;;;;;;;14.05;70.14;99728.09;1700491;84;21153;-81
2022/06/07 00:26:16;;;;;;;51.83;24.95;;;;;;;14.05;70.26;99732.05;1700593;84;21074;-80
2022/06/07 00:28:43;;;;;;;88.60;44.90;;;;;;;14.04;70.24;99731.69;1700404;83;21339;-81
2022/06/07 00:31:09;;;;;;;80.60;39.80;;;;;;;14.03;70.40;99730.42;1700495;84;22161;-81
2022/06/07 00:33:36;;;;;;;48.30;24.57;;;;;;;14.00;70.72;99726.12;1700765;84;21029;-82
2022/06/07 00:36:04;;;;;;;37.78;20.00;;;;;;;13.98;70.92;99733.27;1700452;83;21092;-81
2022/06/07 00:38:31;;;;;;;32.65;17.57;;;;;;;13.97;71.03;99728.93;1700462;84;21018;-81
2022/06/07 00:40:57;;;;;;;36.93;18.80;;;;;;;13.93;71.19;99729.50;1700360;84;21002;-81
2022/06/07 00:43:24;;;;;;;35.48;18.48;;;;;;;13.90;71.28;99736.28;1700548;84;21023;-79
2022/06/07 00:45:51;;;;;;;41.55;21.62;;;;;;;13.87;71.27;99731.12;1700506;84;21140;-81
2022/06/07 00:48:19;;;;;;;40.65;21.40;;;;;;;13.85;71.12;99738.27;1700429;84;21093;-80
2022/06/07 00:51:11;;;;;;;31.87;16.82;;;;;;;13.82;70.94;99738.84;1700231;83;21671;-80
2022/06/07 00:53:37;;;;;;;42.15;21.25;;;;;;;13.78;71.02;99737.28;1700006;83;21085;-81
2022/06/07 00:56:09;;;;;;;47.58;25.25;;;;;;;13.78;71.21;99726.70;1698647;84;21057;-82
2022/06/07 00:58:36;;;;;;;46.30;24.82;;;;;;;13.77;71.34;99730.26;1700234;83;21121;-81
2022/06/07 01:01:04;;;;;;;46.13;24.57;;;;;;;13.73;71.35;99726.45;1700362;83;21150;-82
2022/06/07 01:03:33;;;;;;;52.98;28.92;;;;;;;13.71;71.38;99736.69;1713972;82;21573;-81
2022/06/07 01:10:43;;;;;;;50.58;27.15;;;;;;;13.67;71.46;99729.36;1729812;82;21558;-83
2022/06/07 01:11:09;;;;;;;26.52;15.18;;;;;;;13.61;71.51;99732.27;1670675;82;21135;-83
2022/06/07 01:13:38;;;;;;;18.45;10.48;;;;;;;13.59;71.69;99726.66;1729450;82;21591;-81
2022/06/07 01:16:08;;;;;;;14.87;8.80;;;;;;;13.57;72.08;99728.05;1728288;82;21161;-82
2022/06/07 01:18:37;;;;;;;17.73;9.65;;;;;;;13.54;72.33;99729.50;1729102;82;21081;-80
2022/06/07 01:21:31;;;;;;;15.58;9.75;;;;;;;13.49;72.46;99727.52;1704276;84;21485;-82
2022/06/07 01:23:58;;;;;;;17.23;8.48;;;;;;;13.46;72.49;99728.97;1704688;84;20997;-80
2022/06/07 01:26:26;;;;;;;13.83;7.92;;;;;;;13.44;72.52;99727.70;1674467;85;21299;-80
2022/06/07 01:28:54;;;;;;;15.08;8.60;;;;;;;13.42;72.54;99726.08;1704275;84;21196;-83
2022/06/07 01:31:20;;;;;;;18.35;8.68;;;;;;;13.38;72.62;99724.00;1674809;85;21117;-83
2022/06/07 01:33:47;;;;;;;15.88;9.25;;;;;;;13.34;72.55;99724.59;1673757;85;21081;-82
2022/06/07 01:36:15;;;;;;;15.75;9.50;;;;;;;13.31;72.63;99731.30;1674388;85;21026;-81
2022/06/07 01:38:45;;;;;;;20.72;9.55;;;;;;;13.30;72.70;99729.59;1729060;83;21845;-81
2022/06/07 01:43:59;;;;;;;12.68;7.62;;;;;;;13.32;72.90;99734.37;1729362;83;21011;-81
2022/06/07 01:46:26;;;;;;;16.75;8.35;;;;;;;13.31;73.26;99730.45;1702219;83;21201;-81
2022/06/07 01:48:53;;;;;;;18.05;8.25;;;;;;;13.29;73.18;99735.80;1729304;83;21651;-82
2022/06/07 01:51:20;;;;;;;14.03;8.43;;;;;;;13.28;73.15;99733.21;1708329;82;21152;-81
2022/06/07 01:53:47;;;;;;;13.62;7.90;;;;;;;13.24;73.02;99727.20;1704426;84;21483;-82
2022/06/07 01:56:16;;;;;;;12.82;8.25;;;;;;;13.23;72.94;99724.63;1674554;85;21031;-81
2022/06/07 01:58:44;;;;;;;16.42;8.85;;;;;;;13.22;72.89;99726.41;1704472;84;21145;-83
2022/06/07 02:01:12;;;;;;;17.52;8.45;;;;;;;13.21;72.82;99726.00;1674582;85;22311;-82
2022/06/07 02:03:40;;;;;;;14.63;8.13;;;;;;;13.20;72.77;99722.98;1704401;84;21798;-83
2022/06/07 02:06:10;;;;;;;15.90;8.35;;;;;;;13.18;72.74;99723.05;1704610;84;21160;-81
2022/06/07 02:08:37;;;;;;;14.90;8.83;;;;;;;13.14;72.76;99720.12;1676221;84;21680;-83
2022/06/07 02:11:13;;;;;;;15.35;8.00;;;;;;;13.13;73.07;99721.06;1674771;85;21395;-82
2022/06/07 02:13:42;;;;;;;14.90;8.50;;;;;;;13.13;73.36;99724.14;1676066;84;21018;-82
2022/06/07 02:16:08;;;;;;;16.95;8.15;;;;;;;13.10;73.82;99716.38;1674702;85;21133;-81
2022/06/07 02:18:35;;;;;;;14.23;7.92;;;;;;;13.11;74.11;99720.72;1704497;84;21062;-82
2022/06/07 02:21:21;;;;;;;15.72;8.28;;;;;;;13.10;74.13;99721.66;1673798;85;21531;-81
2022/06/07 02:23:49;;;;;;;14.87;8.05;;;;;;;13.09;74.24;99717.28;1704820;84;21125;-82
2022/06/07 02:26:25;;;;;;;13.13;7.30;;;;;;;13.09;74.16;99722.56;1674807;85;21121;-82
2022/06/07 02:29:02;;;;;;;16.32;8.05;;;;;;;13.08;74.32;99716.88;1674601;85;21159;-81
2022/06/07 02:31:30;;;;;;;12.58;8.28;;;;;;;13.10;74.28;99724.30;1674501;85;21055;-80
2022/06/07 02:33:57;;;;;;;15.35;7.75;;;;;;;13.08;74.30;99728.77;1704410;84;21098;-81
2022/06/07 02:36:25;;;;;;;12.00;7.78;;;;;;;13.10;74.28;99730.43;1674601;85;21106;-80
2022/06/07 02:38:52;;;;;;;16.65;8.28;;;;;;;13.14;74.33;99721.91;1674670;85;21130;-81
2022/06/07 02:41:20;;;;;;;15.68;8.10;;;;;;;13.18;74.31;99722.20;1674591;85;21166;-82
2022/06/07 02:43:47;;;;;;;19.02;8.03;;;;;;;13.19;74.38;99725.22;1704227;84;21153;-82
2022/06/07 02:46:13;;;;;;;15.38;8.40;;;;;;;13.23;74.40;99725.94;1674929;85;21106;-82
2022/06/07 02:48:40;;;;;;;15.35;7.40;;;;;;;13.25;74.49;99726.29;1704353;84;21058;-81
2022/06/07 02:51:07;;;;;;;20.85;8.55;;;;;;;13.31;74.57;99728.66;1647194;85;21035;-82
2022/06/07 02:53:34;;;;;;;16.90;7.87;;;;;;;13.40;74.46;99730.55;1647645;85;21111;-81
2022/06/07 02:56:01;;;;;;;15.83;9.18;;;;;;;13.47;74.56;99733.34;1674608;85;21091;-81
2022/06/07 02:58:29;;;;;;;11.90;7.83;;;;;;;13.53;74.36;99733.94;1674676;85;21153;-81
2022/06/07 03:00:59;;;;;;;16.02;8.20;;;;;;;13.59;74.19;99734.13;1704362;84;21046;-81
2022/06/07 03:03:28;;;;;;;16.37;8.03;;;;;;;13.67;74.23;99728.52;1672971;85;21509;-81
2022/06/07 03:05:55;;;;;;;14.53;8.03;;;;;;;13.74;73.93;99730.80;1663550;86;21122;-81
2022/06/07 03:08:23;;;;;;;15.72;8.98;;;;;;;13.82;73.69;99733.56;1640488;86;21245;-82
2022/06/07 03:10:52;;;;;;;21.45;9.28;;;;;;;13.92;73.35;99726.95;1675478;85;21054;-81
2022/06/07 03:13:19;;;;;;;23.35;9.63;;;;;;;13.98;72.90;99725.33;1675453;85;21094;-81
2022/06/07 03:15:47;;;;;;;16.05;8.70;;;;;;;14.05;72.95;99723.27;1675615;85;21038;-82
2022/06/07 03:18:14;;;;;;;21.12;10.13;;;;;;;14.13;73.16;99725.95;1675656;85;21560;-81
2022/06/07 03:20:48;;;;;;;15.48;8.98;;;;;;;14.21;73.43;99726.09;1675469;85;21680;-82
2022/06/07 03:23:15;;;;;;;12.85;8.13;;;;;;;14.29;73.43;99719.98;1675707;85;21133;-80
2022/06/07 03:25:43;;;;;;;21.27;7.78;;;;;;;14.40;73.03;99730.05;1675234;85;21098;-80
2022/06/07 03:28:10;;;;;;;12.60;7.72;;;;;;;14.48;73.01;99720.81;1675829;85;21027;-82
2022/06/07 03:30:38;;;;;;;13.93;7.17;;;;;;;14.58;73.57;99720.39;1675380;85;21157;-81
2022/06/07 03:33:06;;;;;;;14.53;7.00;;;;;;;14.67;73.43;99721.28;1675927;85;21050;-82
2022/06/07 03:35:33;;;;;;;11.75;6.90;;;;;;;14.77;73.00;99718.58;1674849;85;21069;-81
2022/06/07 03:38:01;;;;;;;13.43;6.70;;;;;;;14.88;73.45;99719.84;1649729;87;21030;-81
2022/06/07 03:43:08;;;;;;;12.00;6.47;;;;;;;15.11;73.09;99712.08;1672041;84;22218;-82
2022/06/07 03:45:35;;;;;;;11.50;5.50;;;;;;;15.21;72.58;99720.84;1700346;84;21360;-82
2022/06/07 03:48:02;;;;;;;10.13;5.67;;;;;;;15.32;71.82;99715.45;1700527;84;21586;-83
2022/06/07 03:50:30;;;;;;;7.67;5.47;;;;;;;15.43;71.22;99714.41;1700778;84;21081;-83
2022/06/07 03:52:58;;;;;;;8.78;5.30;;;;;;;15.56;70.73;99712.84;1700470;84;21580;-83
2022/06/07 03:55:26;;;;;;;7.55;4.90;;;;;;;15.69;70.61;99712.22;1700199;84;22334;-83
2022/06/07 03:57:54;;;;;;;6.97;4.62;;;;;;;15.82;69.71;99715.98;1698541;84;21050;-83
2022/06/07 04:00:21;;;;;;;9.83;4.67;;;;;;;15.96;68.45;99712.58;1693044;84;21322;-81
2022/06/07 04:02:51;;;;;;;6.45;4.12;;;;;;;16.10;67.61;99711.82;1693262;84;21101;-82
2022/06/07 04:05:18;;;;;;;7.72;4.40;;;;;;;16.22;67.05;99713.80;1710090;83;22070;-82
2022/06/07 04:10:32;;;;;;;7.20;4.30;;;;;;;16.46;67.81;99713.41;1715419;83;22248;-84
2022/06/07 04:12:59;;;;;;;16.27;4.30;;;;;;;16.60;68.07;99717.94;1715591;83;21479;-83
2022/06/07 04:15:26;;;;;;;4.10;3.70;;;;;;;16.69;67.72;99712.97;1715406;83;21503;-82
2022/06/07 04:17:53;;;;;;;4.40;3.33;;;;;;;16.81;67.25;99714.52;1715682;83;21506;-82
2022/06/07 04:20:22;;;;;;;2.47;2.20;;;;;;;16.91;66.40;99709.09;1668462;86;21620;-82
2022/06/07 04:22:49;;;;;;;4.40;2.20;;;;;;;17.01;64.66;99707.64;1698323;84;21016;-83
2022/06/07 04:25:18;;;;;;;8.95;2.50;;;;;;;17.11;62.79;99705.75;1668652;86;21058;-80
2022/06/07 04:27:44;;;;;;;9.75;2.12;;;;;;;17.18;61.21;99703.98;1698350;84;21028;-82
2022/06/07 04:30:14;;;;;;;3.83;2.05;;;;;;;17.26;60.79;99706.17;1698321;84;21059;-82
2022/06/07 04:32:46;;;;;;;1.87;1.52;;;;;;;17.34;60.38;99709.23;1668830;86;21146;-83
2022/06/07 04:35:15;;;;;;;6.70;1.80;;;;;;;17.45;58.87;99714.78;1698190;84;21318;-81
2022/06/07 04:37:43;;;;;;;5.70;2.02;;;;;;;17.57;58.23;99707.02;1693197;83;21064;-84
2022/06/07 04:40:10;;;;;;;1.90;1.80;;;;;;;17.67;58.00;99703.30;1715284;83;21138;-82
2022/06/07 04:42:39;;;;;;;3.42;1.95;;;;;;;17.74;57.41;99706.83;1715347;83;21610;-82
2022/06/07 04:45:11;;;;;;;2.72;2.17;;;;;;;17.86;56.99;99709.70;1714097;83;21897;-81
2022/06/07 04:47:42;;;;;;;2.98;2.30;;;;;;;17.94;56.88;99704.31;1714134;83;21054;-83
2022/06/07 04:50:14;;;;;;;5.12;2.20;;;;;;;18.02;56.54;99703.81;1715752;83;21090;-83
2022/06/07 04:52:40;;;;;;;1.98;1.72;;;;;;;18.12;55.65;99708.97;1715398;83;21078;-83
2022/06/07 04:55:09;;;;;;;2.37;1.65;;;;;;;18.22;54.75;99705.70;1715389;83;21043;-82
2022/06/07 04:57:36;;;;;;;4.92;1.60;;;;;;;18.31;54.45;99708.65;1715454;83;22206;-81
2022/06/07 05:00:07;;;;;;;2.77;1.35;;;;;;;18.41;54.01;99711.59;1715428;83;21664;-83
2022/06/07 05:02:35;;;;;;;2.22;1.40;;;;;;;18.49;53.67;99714.62;1715524;83;21110;-82
2022/06/07 05:05:07;;;;;;;4.72;1.60;;;;;;;18.57;53.48;99717.61;1716795;83;21059;-84
2022/06/07 05:07:34;;;;;;;3.87;1.80;;;;;;;18.66;53.75;99713.52;1718174;83;21008;-81
2022/06/07 05:10:08;;;;;;;1.60;1.50;;;;;;;18.75;53.06;99717.39;1676793;85;21255;-83
2022/06/07 05:12:38;;;;;;;1.47;1.30;;;;;;;18.84;52.48;99715.96;1718032;83;21024;-79
2022/06/07 05:15:08;;;;;;;1.72;1.55;;;;;;;18.92;52.67;99724.31;1717906;83;21016;-82
2022/06/07 05:17:37;;;;;;;5.45;2.10;;;;;;;18.99;51.86;99726.09;1670222;84;21071;-82
2022/06/07 05:20:06;;;;;;;3.83;1.85;;;;;;;19.05;51.55;99718.55;1700761;84;21138;-84
2022/06/07 05:22:33;;;;;;;6.47;1.92;;;;;;;19.11;51.20;99721.27;1718277;83;21094;-83
2022/06/07 05:25:02;;;;;;;2.25;1.47;;;;;;;19.19;50.79;99724.28;1670922;85;21039;-83
2022/06/07 05:27:38;;;;;;;1.45;1.35;;;;;;;19.25;50.80;99725.21;1700359;84;20985;-82
2022/06/07 05:30:10;;;;;;;3.50;1.60;;;;;;;19.33;50.59;99723.83;1717789;83;22263;-83
2022/06/07 05:32:39;;;;;;;2.50;1.50;;;;;;;19.42;50.59;99725.41;1712704;83;21015;-79
2022/06/07 05:35:08;;;;;;;1.50;1.20;;;;;;;19.52;50.56;99724.30;1670106;85;21608;-83
2022/06/07 05:37:37;;;;;;;2.08;1.30;;;;;;;19.63;50.75;99720.39;1688928;84;21160;-84
2022/06/07 05:40:09;;;;;;;1.60;1.50;;;;;;;19.73;50.33;99717.09;1700496;84;21039;-82
2022/06/07 05:42:36;;;;;;;1.50;1.10;;;;;;;19.85;49.75;99724.27;1701324;84;21049;-82
2022/06/07 05:45:04;;;;;;;2.25;1.40;;;;;;;19.95;49.46;99725.33;1701291;84;21072;-84
2022/06/07 05:47:32;;;;;;;4.55;1.40;;;;;;;20.06;49.46;99721.08;1701208;84;21139;-84
2022/06/07 05:50:01;;;;;;;3.25;1.37;;;;;;;20.18;49.28;99718.86;1702442;83;21083;-83
2022/06/07 05:52:28;;;;;;;2.40;1.35;;;;;;;20.27;48.97;99711.51;1717352;82;21027;-81
2022/06/07 05:54:57;;;;;;;13.05;1.55;;;;;;;20.36;49.00;99718.03;1676667;84;21076;-83
2022/06/07 05:57:23;;;;;;;6.17;1.22;;;;;;;20.44;48.56;99715.62;1718099;82;21138;-82
2022/06/07 05:59:50;;;;;;;2.15;1.50;;;;;;;20.51;48.99;99710.23;1670990;85;21172;-84
2022/06/07 06:02:18;;;;;;;4.05;1.60;;;;;;;20.59;49.19;99713.66;1700490;84;21047;-84
2022/06/07 06:04:46;;;;;;;2.12;1.25;;;;;;;20.68;48.29;99713.03;1720899;82;21130;-82
2022/06/07 06:07:13;;;;;;;2.87;1.50;;;;;;;20.79;48.34;99712.23;1704386;84;21050;-83
2022/06/07 06:12:29;;;;;;;3.37;1.50;;;;;;;20.96;47.83;99717.66;1674526;85;21182;-82
2022/06/07 06:15:00;;;;;;;1.67;1.25;;;;;;;21.06;48.29;99716.49;1703697;84;21098;-84
2022/06/07 06:17:30;;;;;;;3.62;1.42;;;;;;;21.17;47.69;99707.67;1674604;85;21090;-83
2022/06/07 06:19:59;;;;;;;3.62;1.42;;;;;;;21.27;47.45;99709.52;1673969;85;21067;-84
2022/06/07 06:22:26;;;;;;;3.85;1.02;;;;;;;21.38;48.19;99710.52;1704670;84;21076;-82
2022/06/07 06:24:55;;;;;;;4.78;1.07;;;;;;;21.50;47.97;99709.60;1673897;85;21164;-83
2022/06/07 06:27:22;;;;;;;1.27;1.00;;;;;;;21.59;46.38;99710.73;1704487;84;21145;-83
2022/06/07 06:29:49;;;;;;;3.22;1.00;;;;;;;21.67;45.95;99706.95;1674685;85;21078;-83
2022/06/07 06:32:16;;;;;;;0.95;0.90;;;;;;;21.74;45.37;99709.55;1674515;85;21043;-81
2022/06/07 06:34:45;;;;;;;4.62;1.07;;;;;;;21.79;43.60;99714.05;1704557;84;21011;-83
2022/06/07 06:37:13;;;;;;;3.67;1.00;;;;;;;21.82;42.32;99707.12;1674610;85;21535;-82
2022/06/07 06:39:42;;;;;;;1.62;0.90;;;;;;;21.84;42.60;99709.19;1704540;84;21043;-79
2022/06/07 06:42:09;;;;;;;6.50;0.95;;;;;;;21.86;41.89;99699.69;1674355;85;21041;-82
2022/06/07 06:44:55;;;;;;;15.25;1.20;;;;;;;21.91;43.04;99699.33;1704598;84;21138;-82
2022/06/07 06:47:22;;;;;;;1.05;0.90;;;;;;;22.00;43.69;99702.61;1674558;85;21022;-84
2022/06/07 06:49:50;;;;;;;1.82;0.90;;;;;;;22.08;41.83;99697.00;1674900;85;21118;-82
2022/06/07 06:52:17;;;;;;;0.70;0.70;;;;;;;22.15;41.61;99692.00;1647416;85;21604;-83
2022/06/07 06:54:44;;;;;;;1.27;0.80;;;;;;;22.22;41.78;99690.52;1704380;84;21051;-83
2022/06/07 06:57:12;;;;;;;1.02;1.02;;;;;;;22.33;41.50;99691.55;1673039;85;21129;-83
2022/06/07 06:59:39;;;;;;;1.72;1.00;;;;;;;22.39;39.65;99685.67;1674804;85;21058;-83
2022/06/07 07:02:14;;;;;;;3.60;0.80;;;;;;;22.46;40.29;99688.23;1674560;85;21549;-82
2022/06/07 07:04:45;;;;;;;4.20;0.90;;;;;;;22.54;40.93;99689.77;1672278;85;21177;-84
2022/06/07 07:07:13;;;;;;;2.58;0.72;;;;;;;22.63;40.79;99677.47;1663722;86;21097;-81
2022/06/07 07:09:41;;;;;;;2.00;1.22;;;;;;;22.70;40.57;99684.02;1663702;86;21024;-84
2022/06/07 07:12:10;;;;;;;1.02;0.90;;;;;;;22.76;40.13;99686.67;1663685;86;21025;-83
2022/06/07 07:14:38;;;;;;;1.02;0.80;;;;;;;22.76;40.08;99685.33;1673419;85;21194;-82
2022/06/07 07:17:06;;;;;;;1.87;1.17;;;;;;;22.77;39.60;99687.05;1675571;85;21134;-84
2022/06/07 07:19:33;;;;;;;4.22;0.88;;;;;;;22.78;39.37;99682.90;1675820;85;21046;-84
2022/06/07 07:22:01;;;;;;;1.22;0.90;;;;;;;22.85;38.68;99681.90;1675443;85;21111;-82
2022/06/07 07:24:29;;;;;;;2.22;0.95;;;;;;;22.90;37.36;99681.02;1650221;85;21039;-82
2022/06/07 07:26:58;;;;;;;3.00;1.07;;;;;;;22.89;37.83;99682.48;1675428;85;21282;-84
2022/06/07 07:29:26;;;;;;;1.55;1.10;;;;;;;22.90;38.31;99684.20;1675457;85;21094;-83
2022/06/07 07:31:55;;;;;;;1.62;0.98;;;;;;;22.96;37.87;99679.64;1675417;85;21038;-83
2022/06/07 07:34:24;;;;;;;1.02;1.02;;;;;;;23.00;38.57;99680.61;1674874;85;21004;-82
2022/06/07 07:36:53;;;;;;;2.22;1.25;;;;;;;23.00;37.69;99679.27;1673418;85;21093;-84
2022/06/07 07:39:20;;;;;;;1.92;1.32;;;;;;;22.95;38.19;99678.80;1636375;87;21747;-85
2022/06/07 07:41:51;;;;;;;4.58;1.37;;;;;;;22.86;37.85;99686.77;1638047;87;21621;-82
2022/06/07 07:44:18;;;;;;;2.17;1.00;;;;;;;22.76;39.09;99688.01;1647402;86;21095;-82
2022/06/07 07:46:48;;;;;;;1.32;1.22;;;;;;;22.68;37.89;99685.98;1647813;87;21067;-85
2022/06/07 07:49:17;;;;;;;1.00;1.00;;;;;;;22.66;37.74;99688.41;1698889;84;21126;-84
2022/06/07 07:51:48;;;;;;;1.20;1.10;;;;;;;22.68;38.45;99684.64;1698790;84;21122;-83
2022/06/07 07:54:18;;;;;;;2.08;0.95;;;;;;;22.78;38.28;99682.05;1699171;84;21031;-82
2022/06/07 07:56:45;;;;;;;1.77;1.10;;;;;;;22.88;37.69;99683.45;1698790;84;21106;-84
2022/06/07 07:59:14;;;;;;;1.27;1.00;;;;;;;23.01;39.31;99678.77;1699058;84;21150;-84
2022/06/07 08:01:42;;;;;;;4.40;0.85;;;;;;;23.21;38.78;99682.48;1698789;84;21043;-83
2022/06/07 08:04:10;;;;;;;1.10;1.00;;;;;;;23.39;38.14;99686.79;1698800;84;21146;-85
2022/06/07 08:06:44;;;;;;;1.20;1.10;;;;;;;23.54;36.79;99683.28;1710135;83;21485;-84
2022/06/07 08:09:12;;;;;;;2.77;1.00;;;;;;;23.58;36.94;99677.99;1696788;84;21134;-83
2022/06/07 08:11:40;;;;;;;1.47;0.90;;;;;;;23.62;36.37;99671.86;1667603;86;21558;-83
2022/06/07 08:14:09;;;;;;;1.70;1.07;;;;;;;23.69;37.19;99672.55;1667392;86;21499;-82
2022/06/07 08:16:36;;;;;;;1.87;0.90;;;;;;;23.74;35.80;99680.22;1696874;84;21128;-84
2022/06/07 08:19:03;;;;;;;2.25;1.00;;;;;;;23.66;35.65;99676.84;1696925;84;20999;-84
2022/06/07 08:21:30;;;;;;;2.27;1.07;;;;;;;23.61;36.63;99675.05;1696893;84;21153;-83
2022/06/07 08:23:57;;;;;;;1.92;0.98;;;;;;;23.63;36.67;99674.41;1696804;84;21093;-84
2022/06/07 08:26:26;;;;;;;2.00;0.93;;;;;;;23.64;36.39;99665.38;1696883;84;21054;-81
2022/06/07 08:28:54;;;;;;;4.05;1.07;;;;;;;23.70;36.22;99668.89;1697068;84;21099;-82
2022/06/07 08:31:27;;;;;;;1.50;0.88;;;;;;;23.78;36.52;99672.73;1696690;84;21137;-85
2022/06/07 08:39:25;;;;;;;1.52;1.07;;;;;;;24.13;36.30;99675.53;1697052;84;21062;-84
2022/06/07 08:42:01;;;;;;;1.27;1.00;;;;;;;24.25;36.05;99667.70;1696806;84;21582;-83
2022/06/07 08:44:50;;;;;;;3.90;1.45;;;;;;;24.37;35.61;99661.72;1697042;84;21571;-83
2022/06/07 08:47:54;;;;;;;2.30;1.37;;;;;;;24.48;34.79;99662.45;1696850;84;21016;-84
2022/06/07 08:50:28;;;;;;;7.85;1.27;;;;;;;24.59;35.07;99666.88;1696971;84;21449;-85
2022/06/07 08:53:18;;;;;;;3.10;1.12;;;;;;;24.79;35.23;99673.13;1707951;83;20963;-84
2022/06/07 08:55:48;;;;;;;1.98;0.98;;;;;;;24.91;36.30;99659.54;1709336;83;21169;-83
2022/06/07 08:58:26;;;;;;;1.85;1.25;;;;;;;25.14;36.83;99664.98;1708990;83;21628;-84
2022/06/07 09:01:03;;;;;;;1.15;1.05;;;;;;;25.34;36.36;99660.95;1692663;84;21082;-85
2022/06/07 09:03:57;;;;;;;0.95;0.95;;;;;;;25.53;36.41;99656.02;1667358;85;38998;-85
2022/06/07 09:06:28;;;;;;;4.17;0.95;;;;;;;25.69;35.85;99657.60;1660788;85;21733;-85
2022/06/07 09:08:57;;;;;;;0.70;0.70;;;;;;;25.79;34.78;99657.58;1702775;84;21131;-86
2022/06/07 09:14:53;;;;;;;2.17;1.10;;;;;;;25.65;34.00;99658.87;1702975;84;21145;-86
2022/06/07 09:17:37;;;;;;;1.25;1.15;;;;;;;25.51;35.36;99654.81;1703130;84;21173;-85
2022/06/07 09:20:15;;;;;;;4.92;1.00;;;;;;;25.45;35.14;99659.93;1702816;84;21078;-84
2022/06/07 09:22:55;;;;;;;0.88;0.78;;;;;;;25.40;34.03;99650.45;1703047;84;21089;-85
2022/06/07 09:25:34;;;;;;;2.60;1.00;;;;;;;25.38;34.27;99654.27;1678030;84;21016;-86
2022/06/07 09:28:04;;;;;;;2.12;1.00;;;;;;;25.43;34.68;99642.56;1653668;84;21014;-87
2022/06/07 09:30:38;;;;;;;1.55;1.20;;;;;;;25.54;33.58;99651.83;1702661;84;21141;-85
2022/06/07 09:33:21;;;;;;;7.55;1.05;;;;;;;25.59;33.18;99643.31;1703150;84;21078;-83
2022/06/07 09:35:48;;;;;;;1.22;0.90;;;;;;;25.70;34.42;99642.27;1703639;84;21232;-84
2022/06/07 09:38:34;;;;;;;5.83;1.20;;;;;;;25.84;34.53;99643.16;1706892;84;21113;-85
2022/06/07 09:41:36;;;;;;;0.98;0.82;;;;;;;25.98;33.22;99636.95;1706830;84;21241;-84
2022/06/07 09:43:42;;;;;;;3.22;1.10;;;;;;;26.10;33.11;99641.14;1702631;84;20999;-84
2022/06/07 09:46:11;;;;;;;2.08;1.07;;;;;;;26.15;31.32;99636.14;1706767;84;21077;-85
2022/06/07 09:48:41;;;;;;;1.60;0.85;;;;;;;26.13;31.49;99635.45;1707284;84;21880;-86
2022/06/07 09:51:19;;;;;;;2.25;1.00;;;;;;;26.06;32.28;99637.90;1703672;84;21124;-84
2022/06/07 09:53:57;;;;;;;1.27;0.90;;;;;;;26.07;30.97;99636.05;1703428;84;21565;-83
2022/06/07 09:56:47;;;;;;;1.77;0.85;;;;;;;25.98;31.42;99626.17;1695711;84;21058;-82
2022/06/07 09:59:42;;;;;;;2.77;0.93;;;;;;;26.01;31.60;99627.19;1704312;84;21073;-85
2022/06/07 10:02:23;;;;;;;1.52;0.80;;;;;;;26.07;31.32;99624.75;1666525;84;22286;-86
2022/06/07 10:05:22;;;;;;;3.87;1.00;;;;;;;26.09;32.02;99623.25;1704325;84;21097;-85
2022/06/07 10:08:16;;;;;;;2.58;0.98;;;;;;;26.17;32.19;99619.30;1704344;84;21038;-84
2022/06/07 10:11:00;;;;;;;1.07;0.80;;;;;;;26.29;31.97;99614.06;1704299;84;20983;-83
2022/06/07 10:14:06;;;;;;;1.47;0.93;;;;;;;26.45;31.84;99615.23;1704301;84;21137;-83
2022/06/07 10:16:44;;;;;;;4.12;1.05;;;;;;;26.60;31.59;99605.59;1704573;84;21148;-85
2022/06/07 10:19:34;;;;;;;1.10;1.00;;;;;;;26.75;31.25;99600.54;1704446;84;21007;-85
2022/06/07 10:22:24;;;;;;;2.15;1.10;;;;;;;26.83;30.90;99599.74;1704623;84;21053;-84
2022/06/07 10:25:09;;;;;;;2.50;1.00;;;;;;;26.97;32.15;99604.59;1704327;84;21070;-85
2022/06/07 10:27:51;;;;;;;1.12;0.90;;;;;;;27.21;31.36;99599.03;1704409;84;21133;-85
2022/06/07 10:30:23;;;;;;;3.27;1.10;;;;;;;27.30;31.30;99594.04;1703971;83;21656;-86
2022/06/07 10:33:02;;;;;;;3.08;0.90;;;;;;;27.25;32.30;99593.64;1704758;84;21542;-84
2022/06/07 10:35:46;;;;;;;2.60;0.95;;;;;;;27.15;30.65;99587.50;1704074;84;21481;-84
2022/06/07 10:38:54;;;;;;;4.78;1.20;;;;;;;27.23;30.92;99588.91;1704242;84;21019;-84
2022/06/07 10:42:11;;;;;;;4.75;1.25;;;;;;;27.35;31.92;99585.47;1703547;84;21400;-82
2022/06/07 10:44:56;;;;;;;2.60;1.10;;;;;;;27.53;31.92;99586.24;1704443;84;21239;-85
2022/06/07 10:47:28;;;;;;;3.07;0.73;;;;;;;27.53;30.28;99578.65;1704598;84;21109;-86
2022/06/07 10:50:00;;;;;;;1.92;0.90;;;;;;;27.51;30.12;99577.45;1704590;84;21309;-82
2022/06/07 10:52:44;;;;;;;4.70;1.10;;;;;;;27.57;30.35;99578.17;1704270;84;21078;-86
2022/06/07 10:55:22;;;;;;;3.15;1.00;;;;;;;27.47;28.74;99575.23;1704541;84;21598;-83
2022/06/07 10:58:04;;;;;;;0.98;0.80;;;;;;;27.09;30.12;99578.70;1704464;84;21153;-84
2022/06/07 11:00:39;;;;;;;1.98;1.35;;;;;;;26.87;31.20;99576.84;1660690;84;21096;-85
2022/06/07 11:03:51;;;;;;;1.67;1.50;;;;;;;26.91;31.67;99580.91;1704354;84;21035;-84
2022/06/07 11:09:42;;;;;;;4.45;1.10;;;;;;;27.28;31.62;99567.66;1697115;84;21078;-86
2022/06/07 11:12:19;;;;;;;1.57;1.02;;;;;;;27.52;31.66;99563.43;1696736;84;21149;-83
2022/06/07 11:15:23;;;;;;;2.45;1.20;;;;;;;27.73;31.20;99560.33;1696846;84;21738;-86
2022/06/07 11:18:02;;;;;;;4.03;1.20;;;;;;;27.91;30.21;99558.88;1696751;84;21027;-84
2022/06/07 11:20:31;;;;;;;2.35;0.95;;;;;;;28.02;29.23;99555.88;1696757;84;21145;-84
2022/06/07 11:23:10;;;;;;;3.33;1.00;;;;;;;28.01;29.66;99554.21;1697013;84;21675;-85
2022/06/07 11:25:43;;;;;;;2.12;1.00;;;;;;;28.00;28.75;99547.09;1696835;84;21176;-86
2022/06/07 11:28:19;;;;;;;1.52;0.80;;;;;;;27.92;28.39;99547.04;1693965;84;21557;-85
2022/06/07 11:30:49;;;;;;;3.22;1.10;;;;;;;27.86;29.46;99536.38;1696638;84;21047;-83
2022/06/07 11:33:43;;;;;;;3.20;1.10;;;;;;;27.88;29.29;99535.70;1696648;84;21160;-86
2022/06/07 11:36:24;;;;;;;1.15;0.90;;;;;;;27.98;30.52;99533.73;1659205;84;22267;-85
2022/06/07 11:39:02;;;;;;;1.87;0.82;;;;;;;28.15;30.42;99537.84;1697096;84;21164;-86
2022/06/07 11:41:41;;;;;;;0.95;0.90;;;;;;;28.31;29.65;99527.53;1688870;84;21034;-82
2022/06/07 11:44:32;;;;;;;1.40;0.90;;;;;;;28.50;29.60;99526.38;1677819;85;21561;-86
2022/06/07 11:47:04;;;;;;;3.72;0.80;;;;;;;28.70;28.44;99524.22;1649753;87;21002;-84
2022/06/07 11:49:33;;;;;;;1.25;0.85;;;;;;;28.80;28.06;99518.11;1677420;85;21050;-85
2022/06/07 11:52:13;;;;;;;2.60;0.82;;;;;;;28.70;27.51;99523.70;1685190;84;21775;-82
2022/06/07 11:54:53;;;;;;;2.02;1.30;;;;;;;28.53;28.08;99526.05;1705739;84;21169;-85
2022/06/07 11:57:29;;;;;;;3.60;1.10;;;;;;;28.47;27.62;99516.72;1693564;84;22237;-86
2022/06/07 12:00:16;;;;;;;3.33;1.15;;;;;;;28.40;29.88;99510.30;1674699;85;27736;-82
2022/06/07 12:03:03;;;;;;;3.67;1.42;;;;;;;28.29;27.67;99507.92;1674640;85;21140;-84
2022/06/07 12:05:46;;;;;;;1.20;1.10;;;;;;;28.00;28.05;99514.64;1652946;85;22155;-85
2022/06/07 12:08:31;;;;;;;2.35;1.20;;;;;;;27.66;27.69;99514.18;1699270;84;21073;-85
2022/06/07 12:11:22;;;;;;;1.93;1.57;;;;;;;27.48;28.81;99509.38;1732422;82;21120;-83
2022/06/07 12:14:13;;;;;;;0.85;0.85;;;;;;;27.62;29.42;99506.04;1732252;82;21037;-81
2022/06/07 12:16:59;;;;;;;2.35;1.07;;;;;;;27.77;28.36;99504.42;1682834;84;21065;-82
2022/06/07 12:19:29;;;;;;;2.85;0.98;;;;;;;27.92;28.54;99504.64;1732440;82;21111;-84